createdAt,value
2022-08-09T00:00:05.895Z,102490
2022-08-09T00:05:03.664Z,102500
2022-08-09T00:10:00.176Z,102510
2022-08-09T00:15:00.448Z,102490
2022-08-09T00:20:00.191Z,102460
2022-08-09T00:25:00.191Z,102490
2022-08-09T00:30:16.495Z,102480
2022-08-09T00:35:00.180Z,102510
2022-08-09T00:40:14.202Z,102490
2022-08-09T00:45:03.737Z,102500
2022-08-09T00:50:00.187Z,102470
2022-08-09T00:55:00.975Z,102490
2022-08-09T01:00:02.892Z,102490
2022-08-09T01:05:00.172Z,102520
2022-08-09T01:10:00.176Z,102500
2022-08-09T01:15:01.042Z,102500
2022-08-09T01:20:02.484Z,102510
2022-08-09T01:25:00.819Z,102510
2022-08-09T01:30:00.542Z,102500
2022-08-09T01:35:00.181Z,102520
2022-08-09T01:40:00.148Z,102510
2022-08-09T01:45:00.229Z,102540
2022-08-09T01:50:00.196Z,102500
2022-08-09T01:55:00.166Z,102530
2022-08-09T02:00:19.220Z,102520
2022-08-09T02:05:04.526Z,102500
2022-08-09T02:10:01.479Z,102510
2022-08-09T02:15:00.228Z,102510
2022-08-09T02:20:01.322Z,102510
2022-08-09T02:25:00.183Z,102520
2022-08-09T02:30:01.559Z,102520
2022-08-09T02:35:00.186Z,102500
2022-08-09T02:40:01.765Z,102510
2022-08-09T02:45:00.149Z,102510
2022-08-09T02:50:02.045Z,102520
2022-08-09T02:55:00.210Z,102520
2022-08-09T03:00:20.832Z,102500
2022-08-09T03:05:00.165Z,102510
2022-08-09T03:10:00.658Z,102490
2022-08-09T03:15:00.213Z,102480
2022-08-09T03:20:05.064Z,102490
2022-08-09T03:25:13.598Z,102490
2022-08-09T03:30:01.342Z,102500
2022-08-09T03:35:00.188Z,102490
2022-08-09T03:40:00.297Z,102510
2022-08-09T03:45:00.181Z,102490
2022-08-09T03:50:00.187Z,102510
2022-08-09T03:55:00.214Z,102510
2022-08-09T04:00:00.533Z,102490
2022-08-09T04:05:00.809Z,102490
2022-08-09T04:10:00.217Z,102500
2022-08-09T04:15:01.780Z,102510
2022-08-09T04:20:02.726Z,102510
2022-08-09T04:25:01.330Z,102520
2022-08-09T04:30:00.199Z,102540
2022-08-09T04:35:01.122Z,102520
2022-08-09T04:40:00.202Z,102520
2022-08-09T04:45:00.160Z,102530
2022-08-09T04:50:00.194Z,102520
2022-08-09T04:55:00.192Z,102540
2022-08-09T05:00:00.229Z,102540
2022-08-09T05:05:09.891Z,102540
2022-08-09T05:10:02.265Z,102540
2022-08-09T05:15:00.281Z,102540
2022-08-09T05:20:00.233Z,102570
2022-08-09T05:25:01.036Z,102560
2022-08-09T05:30:00.248Z,102540
2022-08-09T05:35:00.199Z,102550
2022-08-09T05:40:00.285Z,102540
2022-08-09T05:45:00.229Z,102560
2022-08-09T05:50:31.069Z,102580
2022-08-09T05:55:03.133Z,102600
2022-08-09T06:00:00.312Z,102590
2022-08-09T06:05:00.223Z,102600
2022-08-09T06:10:02.049Z,102600
2022-08-09T06:15:01.801Z,102600
2022-08-09T06:20:00.205Z,102580
2022-08-09T06:25:00.225Z,102580
2022-08-09T06:30:09.473Z,102590
2022-08-09T06:35:00.202Z,102600
2022-08-09T06:40:05.655Z,102590
2022-08-09T06:45:04.622Z,102590
2022-08-09T06:50:13.478Z,102600
2022-08-09T06:55:00.204Z,102610
2022-08-09T07:00:54.117Z,102610
2022-08-09T07:05:00.275Z,102610
2022-08-09T07:10:14.117Z,102620
2022-08-09T07:15:00.226Z,102610
2022-08-09T07:20:00.237Z,102630
2022-08-09T07:25:00.198Z,102610
2022-08-09T07:30:00.313Z,102610
2022-08-09T07:35:00.217Z,102620
2022-08-09T07:40:00.291Z,102610
2022-08-09T07:45:06.310Z,102620
2022-08-09T07:50:07.748Z,102600
2022-08-09T07:55:00.210Z,102600
2022-08-09T08:00:03.035Z,102610
2022-08-09T08:05:00.196Z,102610
2022-08-09T08:10:08.583Z,102580
2022-08-09T08:15:00.204Z,102600
2022-08-09T08:20:00.194Z,102620
2022-08-09T08:25:00.210Z,102600
2022-08-09T08:30:04.349Z,102610
2022-08-09T08:35:00.226Z,102600
2022-08-09T08:40:00.311Z,102650
2022-08-09T08:45:00.188Z,102630
2022-08-09T08:50:02.756Z,102620
2022-08-09T08:55:01.268Z,102630
2022-08-09T09:00:00.302Z,102620
2022-08-09T09:05:06.014Z,102640
2022-08-09T09:10:04.823Z,102600
2022-08-09T09:15:00.207Z,102630
2022-08-09T09:20:00.210Z,102630
2022-08-09T09:26:01.134Z,102620
2022-08-09T09:30:14.091Z,102630
2022-08-09T09:35:00.201Z,102620
2022-08-09T09:40:00.266Z,102610
2022-08-09T09:45:00.358Z,102650
2022-08-09T09:50:14.206Z,102600
2022-08-09T09:55:00.246Z,102600
2022-08-09T10:00:00.241Z,102620
2022-08-09T10:05:00.194Z,102630
2022-08-09T10:10:00.213Z,102600
2022-08-09T10:15:00.225Z,102600
2022-08-09T10:20:00.559Z,102610
2022-08-09T10:25:03.359Z,102600
2022-08-09T10:30:43.611Z,102580
2022-08-09T10:35:00.254Z,102620
2022-08-09T10:40:00.295Z,102580
2022-08-09T10:45:00.205Z,102600
2022-08-09T10:50:00.267Z,102590
2022-08-09T10:55:00.222Z,102590
2022-08-09T11:00:01.612Z,102600
2022-08-09T11:05:00.279Z,102570
2022-08-09T11:10:00.228Z,102580
2022-08-09T11:15:00.208Z,102580
2022-08-09T11:20:10.806Z,102550
2022-08-09T11:25:00.269Z,102570
2022-08-09T11:30:04.200Z,102580
2022-08-09T11:35:00.214Z,102530
2022-08-09T11:40:00.347Z,102550
2022-08-09T11:45:00.279Z,102550
2022-08-09T11:50:53.019Z,102540
2022-08-09T11:55:00.190Z,102520
2022-08-09T12:00:00.232Z,102560
2022-08-09T12:05:00.418Z,102570
2022-08-09T12:10:00.213Z,102560
2022-08-09T12:15:07.911Z,102540
2022-08-09T12:20:00.214Z,102550
2022-08-09T12:25:00.197Z,102520
2022-08-09T12:30:35.402Z,102530
2022-08-09T12:35:02.958Z,102520
2022-08-09T12:40:00.185Z,102520
2022-08-09T12:45:00.323Z,102520
2022-08-09T12:50:00.303Z,102510
2022-08-09T12:55:03.126Z,102520
2022-08-09T13:00:03.874Z,102520
2022-08-09T13:05:00.213Z,102510
2022-08-09T13:10:01.445Z,102490
2022-08-09T13:15:00.182Z,102500
2022-08-09T13:20:09.708Z,102500
2022-08-09T13:25:03.586Z,102510
2022-08-09T13:30:04.269Z,102490
2022-08-09T13:35:00.243Z,102490
2022-08-09T13:41:50.735Z,102480
2022-08-09T13:45:00.225Z,102480
2022-08-09T13:50:01.229Z,102480
2022-08-09T13:55:04.697Z,102480
2022-08-09T14:00:00.263Z,102470
2022-08-09T14:05:00.576Z,102470
2022-08-09T14:10:00.213Z,102460
2022-08-09T14:15:00.306Z,102450
2022-08-09T14:20:00.205Z,102440
2022-08-09T14:25:00.194Z,102470
2022-08-09T14:30:35.034Z,102490
2022-08-09T14:35:00.223Z,102460
2022-08-09T14:40:00.350Z,102470
2022-08-09T14:45:00.947Z,102460
2022-08-09T14:50:02.022Z,102470
2022-08-09T14:55:00.199Z,102430
2022-08-09T15:00:00.308Z,102450
2022-08-09T15:05:00.205Z,102440
2022-08-09T15:10:07.627Z,102470
2022-08-09T15:15:00.184Z,102450
2022-08-09T15:20:02.508Z,102400
2022-08-09T15:25:00.207Z,102440
2022-08-09T15:30:56.928Z,102430
2022-08-09T15:35:00.346Z,102420
2022-08-09T15:40:00.269Z,102430
2022-08-09T15:45:00.234Z,102420
2022-08-09T15:50:04.130Z,102420
2022-08-09T15:55:00.223Z,102410
2022-08-09T16:00:00.312Z,102420
2022-08-09T16:05:04.031Z,102400
2022-08-09T16:10:04.570Z,102400
2022-08-09T16:15:00.222Z,102400
2022-08-09T16:20:04.977Z,102420
2022-08-09T16:25:01.455Z,102390
2022-08-09T16:30:02.263Z,102410
2022-08-09T16:35:00.246Z,102390
2022-08-09T16:40:05.244Z,102400
2022-08-09T16:45:00.291Z,102370
2022-08-09T16:50:33.440Z,102390
2022-08-09T16:55:00.295Z,102380
2022-08-09T17:00:00.379Z,102410
2022-08-09T17:05:00.301Z,102420
2022-08-09T17:10:02.000Z,102390
2022-08-09T17:15:00.257Z,102410
2022-08-09T17:20:32.695Z,102430
2022-08-09T17:25:03.190Z,102410
2022-08-09T17:30:04.774Z,102420
2022-08-09T17:35:04.022Z,102400
2022-08-09T17:40:00.357Z,102420
2022-08-09T17:45:00.206Z,102420
2022-08-09T17:50:11.021Z,102460
2022-08-09T17:55:00.246Z,102410
2022-08-09T18:00:05.322Z,102420
2022-08-09T18:05:00.305Z,102420
2022-08-09T18:10:04.027Z,102420
2022-08-09T18:15:00.263Z,102420
2022-08-09T18:20:55.494Z,102430
2022-08-09T18:25:00.276Z,102430
2022-08-09T18:30:41.260Z,102430
2022-08-09T18:35:00.324Z,102440
2022-08-09T18:40:00.436Z,102420
2022-08-09T18:45:01.158Z,102460
2022-08-09T18:50:03.279Z,102420
2022-08-09T18:55:00.282Z,102430
2022-08-09T19:00:03.954Z,102410
2022-08-09T19:05:03.413Z,102430
2022-08-09T19:10:16.835Z,102420
2022-08-09T19:15:00.228Z,102460
2022-08-09T19:20:00.664Z,102450
2022-08-09T19:25:11.386Z,102470
2022-08-09T19:30:22.232Z,102440
2022-08-09T19:35:00.276Z,102450
2022-08-09T19:40:04.689Z,102450
2022-08-09T19:45:00.225Z,102480
2022-08-09T19:50:10.287Z,102480
2022-08-09T19:55:00.285Z,102450
2022-08-09T20:00:06.574Z,102470
2022-08-09T20:05:00.723Z,102490
2022-08-09T20:10:00.237Z,102480
2022-08-09T20:15:00.260Z,102490
2022-08-09T20:20:00.209Z,102480
2022-08-09T20:25:00.825Z,102480
2022-08-09T20:30:00.223Z,102490
2022-08-09T20:35:01.490Z,102500
2022-08-09T20:40:15.014Z,102510
2022-08-09T20:45:57.121Z,102500
2022-08-09T20:50:00.232Z,102500
2022-08-09T20:55:00.262Z,102500
2022-08-09T21:00:31.239Z,102520
2022-08-09T21:05:56.780Z,102520
2022-08-09T21:10:00.224Z,102520
2022-08-09T21:15:00.167Z,102520
2022-08-09T21:20:19.346Z,102520
2022-08-09T21:25:00.250Z,102500
2022-08-09T21:30:00.206Z,102510
2022-08-09T21:35:00.192Z,102540
2022-08-09T21:40:00.318Z,102530
2022-08-09T21:45:00.160Z,102520
2022-08-09T21:50:00.227Z,102520
2022-08-09T21:55:04.390Z,102520
2022-08-09T22:00:00.259Z,102510
2022-08-09T22:05:16.933Z,102500
2022-08-09T22:10:00.192Z,102510
2022-08-09T22:15:00.187Z,102510
2022-08-09T22:20:00.767Z,102520
2022-08-09T22:26:06.208Z,102510
2022-08-09T22:30:00.223Z,102500
2022-08-09T22:35:02.452Z,102490
2022-08-09T22:40:00.318Z,102500
2022-08-09T22:48:15.665Z,102490
2022-08-09T22:50:00.232Z,102490
2022-08-09T22:55:00.248Z,102530
2022-08-09T23:00:00.283Z,102500
2022-08-09T23:05:00.245Z,102480
2022-08-09T23:10:00.248Z,102510
2022-08-09T23:15:00.246Z,102510
2022-08-09T23:20:06.225Z,102520
2022-08-09T23:25:00.215Z,102510
2022-08-09T23:30:00.283Z,102520
2022-08-09T23:35:00.244Z,102520
2022-08-09T23:40:00.229Z,102490
2022-08-09T23:45:00.285Z,102510
2022-08-09T23:50:00.211Z,102510
2022-08-09T23:55:00.274Z,102500
